Antonello — IKVS — position and weather

sailwx.info

Track history (hours):
 
Tides and Currents Weather Stations Pressure Air Temp Water Temp Dewpoint Dewpoint Depression Visibility Wind Speed Wind Dir Waves Ship Positions

Antonello

Last reported at 2014-Aug-30 01:18 UTC. Time now 2014-Aug-30 04:28 UTC.
Position N 38°17' E 014°06'.

Length 70 m; draft 4.5 m.

Type: Ship. MMSI: 247422000.

Date/timePositionNaut miles runAvg speedWind from/ knotsBaromVisibWave heightAir tempDewpointWater temp
2014-Aug-30 01:18N 38°17' E 014°06'7 8.6
2014-Aug-30 00:26N 38°16' E 013°57'8 8.6
2014-Aug-29 23:31N 38°14' E 013°47'8 8.7
2014-Aug-29 22:33N 38°11' E 013°37'9 8.7
2014-Aug-29 21:32N 38°09' E 013°26'3 3.2
2014-Aug-29 20:28N 38°08' E 013°22'0 0.0
2014-Aug-29 19:33N 38°08' E 013°22'0 0.0
2014-Aug-29 18:32N 38°08' E 013°22'0 0.0
2014-Aug-29 17:26N 38°08' E 013°22'0 0.0
2014-Aug-29 16:31N 38°08' E 013°22'0 0.0
2014-Aug-29 15:25N 38°08' E 013°22'0 0.0
2014-Aug-29 14:30N 38°08' E 013°22'0 0.0
2014-Aug-29 13:30N 38°08' E 013°22'0 0.0
2014-Aug-29 12:26N 38°08' E 013°22'0 0.0
2014-Aug-29 11:31N 38°08' E 013°22'0 0.0
2014-Aug-29 10:31N 38°08' E 013°22'0 0.0
2014-Aug-29 09:33N 38°08' E 013°22'0 0.0
2014-Aug-29 08:33N 38°08' E 013°22'0 0.0
2014-Aug-29 07:32N 38°08' E 013°22'0 0.0
2014-Aug-29 06:31N 38°08' E 013°22'0 0.0
2014-Aug-29 05:32N 38°08' E 013°22'5 5.1
2014-Aug-29 04:33N 38°12' E 013°24'7 7.4
2014-Aug-29 03:33N 38°17' E 013°17'9 8.9
2014-Aug-29 02:33N 38°14' E 013°06'9 8.9
2014-Aug-29 01:33N 38°14' E 012°54'23 0.8
2014-Aug-27 19:32N 38°08' E 013°22'0 0.0
2014-Aug-27 18:31N 38°08' E 013°22'0 0.0
2014-Aug-27 17:31N 38°08' E 013°22'0 0.0
2014-Aug-27 16:30N 38°08' E 013°22'0 0.0
2014-Aug-27 15:33N 38°08' E 013°22'0 0.0
2014-Aug-27 14:32N 38°08' E 013°22'0 0.0
2014-Aug-27 13:28N 38°08' E 013°22'0 0.0
2014-Aug-27 12:28N 38°08' E 013°22'0 0.0
2014-Aug-27 11:33N 38°08' E 013°22'0 0.0
2014-Aug-27 10:33N 38°08' E 013°22'0 0.0
2014-Aug-27 09:32N 38°08' E 013°22'0 0.0
2014-Aug-27 08:32N 38°08' E 013°22'0 0.0
2014-Aug-27 07:31N 38°08' E 013°22'3 3.2
2014-Aug-27 06:34N 38°10' E 013°24'8 7.8
2014-Aug-27 05:34N 38°17' E 013°19'9 9.3
2014-Aug-27 04:33N 38°16' E 013°07'10 9.4
2014-Aug-27 03:31N 38°15' E 012°55'18 8.9
2014-Aug-27 01:32N 38°09' E 012°33'15 0.7
2014-Aug-26 04:33N 38°15' E 012°51'9 9.0
2014-Aug-26 03:33N 38°16' E 013°03'9 9.0
2014-Aug-26 02:34N 38°16' E 013°14'9 9.0
2014-Aug-26 01:33N 38°13' E 013°24'5 5.2
2014-Aug-26 00:32N 38°08' E 013°22'0 0.1
2014-Aug-25 23:32N 38°08' E 013°22'0 0.0
2014-Aug-25 22:31N 38°08' E 013°22'0 0.0
2014-Aug-25 21:31N 38°08' E 013°22'0 0.0
2014-Aug-25 20:33N 38°08' E 013°22'0 0.0
2014-Aug-25 19:33N 38°08' E 013°22'0 0.0
2014-Aug-25 18:32N 38°08' E 013°22'0 0.0
2014-Aug-25 17:28N 38°08' E 013°22'0 0.0
2014-Aug-25 16:31N 38°08' E 013°22'3 2.7
2014-Aug-25 15:33N 38°10' E 013°24'9 9.2
2014-Aug-25 14:33N 38°14' E 013°35'9 9.1
2014-Aug-25 13:33N 38°17' E 013°46'11 9.3
2014-Aug-25 12:20N 38°22' E 013°59'  
Track history (hours):
 
Tides and Currents Weather Stations Pressure Air Temp Water Temp Dewpoint Dewpoint Depression Visibility Wind Speed Wind Dir Waves Ship Positions

Antonello

Last reported at 2014-Aug-30 01:18 UTC. Time now 2014-Aug-30 04:28 UTC.
Position N 38°17' E 014°06'.

Length 70 m; draft 4.5 m.

Type: Ship. MMSI: 247422000.

Date/timePositionNaut miles runAvg speedWind from/ knotsBaromVisibWave heightAir tempDewpointWater temp
2014-Aug-30 01:18N 38°17' E 014°06'7 8.6
2014-Aug-30 00:26N 38°16' E 013°57'8 8.6
2014-Aug-29 23:31N 38°14' E 013°47'8 8.7
2014-Aug-29 22:33N 38°11' E 013°37'9 8.7
2014-Aug-29 21:32N 38°09' E 013°26'3 3.2
2014-Aug-29 20:28N 38°08' E 013°22'0 0.0
2014-Aug-29 19:33N 38°08' E 013°22'0 0.0
2014-Aug-29 18:32N 38°08' E 013°22'0 0.0
2014-Aug-29 17:26N 38°08' E 013°22'0 0.0
2014-Aug-29 16:31N 38°08' E 013°22'0 0.0
2014-Aug-29 15:25N 38°08' E 013°22'0 0.0
2014-Aug-29 14:30N 38°08' E 013°22'0 0.0
2014-Aug-29 13:30N 38°08' E 013°22'0 0.0
2014-Aug-29 12:26N 38°08' E 013°22'0 0.0
2014-Aug-29 11:31N 38°08' E 013°22'0 0.0
2014-Aug-29 10:31N 38°08' E 013°22'0 0.0
2014-Aug-29 09:33N 38°08' E 013°22'0 0.0
2014-Aug-29 08:33N 38°08' E 013°22'0 0.0
2014-Aug-29 07:32N 38°08' E 013°22'0 0.0
2014-Aug-29 06:31N 38°08' E 013°22'0 0.0
2014-Aug-29 05:32N 38°08' E 013°22'5 5.1
2014-Aug-29 04:33N 38°12' E 013°24'7 7.4
2014-Aug-29 03:33N 38°17' E 013°17'9 8.9
2014-Aug-29 02:33N 38°14' E 013°06'9 8.9
2014-Aug-29 01:33N 38°14' E 012°54'23 0.8
2014-Aug-27 19:32N 38°08' E 013°22'0 0.0
2014-Aug-27 18:31N 38°08' E 013°22'0 0.0
2014-Aug-27 17:31N 38°08' E 013°22'0 0.0
2014-Aug-27 16:30N 38°08' E 013°22'0 0.0
2014-Aug-27 15:33N 38°08' E 013°22'0 0.0
2014-Aug-27 14:32N 38°08' E 013°22'0 0.0
2014-Aug-27 13:28N 38°08' E 013°22'0 0.0
2014-Aug-27 12:28N 38°08' E 013°22'0 0.0
2014-Aug-27 11:33N 38°08' E 013°22'0 0.0
2014-Aug-27 10:33N 38°08' E 013°22'0 0.0
2014-Aug-27 09:32N 38°08' E 013°22'0 0.0
2014-Aug-27 08:32N 38°08' E 013°22'0 0.0
2014-Aug-27 07:31N 38°08' E 013°22'3 3.2
2014-Aug-27 06:34N 38°10' E 013°24'8 7.8
2014-Aug-27 05:34N 38°17' E 013°19'9 9.3
2014-Aug-27 04:33N 38°16' E 013°07'10 9.4
2014-Aug-27 03:31N 38°15' E 012°55'18 8.9
2014-Aug-27 01:32N 38°09' E 012°33'15 0.7
2014-Aug-26 04:33N 38°15' E 012°51'9 9.0
2014-Aug-26 03:33N 38°16' E 013°03'9 9.0
2014-Aug-26 02:34N 38°16' E 013°14'9 9.0
2014-Aug-26 01:33N 38°13' E 013°24'5 5.2
2014-Aug-26 00:32N 38°08' E 013°22'0 0.1
2014-Aug-25 23:32N 38°08' E 013°22'0 0.0
2014-Aug-25 22:31N 38°08' E 013°22'0 0.0
2014-Aug-25 21:31N 38°08' E 013°22'0 0.0
2014-Aug-25 20:33N 38°08' E 013°22'0 0.0
2014-Aug-25 19:33N 38°08' E 013°22'0 0.0
2014-Aug-25 18:32N 38°08' E 013°22'0 0.0
2014-Aug-25 17:28N 38°08' E 013°22'0 0.0
2014-Aug-25 16:31N 38°08' E 013°22'3 2.7
2014-Aug-25 15:33N 38°10' E 013°24'9 9.2
2014-Aug-25 14:33N 38°14' E 013°35'9 9.1
2014-Aug-25 13:33N 38°17' E 013°46'11 9.3
2014-Aug-25 12:20N 38°22' E 013°59'  

Dump ship's entire track history